Time;durP1;ratioP1;P1;durP2;ratioP2;P2;SDS_P1;SDS_P2;PMS_P1;PMS_P2;Temp;Humidity;BMP_temperature;BMP_pressure;BME280_temperature;BME280_humidity;BME280_pressure;Samples;Min_cycle;Max_cycle;Signal;HPM_P1;HPM_P2
2022/10/03 00:01:40;;;;;;;8.87;0.43;;;11.60;99.90;;;;;;4984558;28;20433;-85
2022/10/03 00:04:17;;;;;;;8.50;0.60;;;11.60;99.90;;;;;;4994055;28;20433;-88
2022/10/03 00:06:51;;;;;;;7.07;1.00;;;11.70;99.90;;;;;;5016605;28;20423;-87
2022/10/03 00:09:41;;;;;;;10.93;0.63;;;11.70;99.90;;;;;;4999193;28;20477;-86
2022/10/03 00:12:35;;;;;;;5.70;0.40;;;11.70;99.90;;;;;;5016699;28;20770;-86
2022/10/03 00:15:27;;;;;;;4.50;0.47;;;11.70;99.90;;;;;;5016607;28;20504;-86
2022/10/03 00:18:01;;;;;;;3.70;0.60;;;11.60;99.90;;;;;;5016289;28;20418;-85
2022/10/03 00:21:00;;;;;;;8.90;0.30;;;11.60;99.90;;;;;;5016490;28;20926;-89
2022/10/03 00:23:43;;;;;;;7.13;1.07;;;11.50;99.90;;;;;;5016713;28;20424;-88
2022/10/03 00:26:56;;;;;;;6.43;0.40;;;11.50;99.90;;;;;;5016430;28;20415;-88
2022/10/03 00:29:48;;;;;;;6.40;0.50;;;11.50;99.90;;;;;;5009281;28;20859;-86
2022/10/03 00:32:29;;;;;;;6.13;1.40;;;11.50;99.90;;;;;;5002688;28;20460;-87
2022/10/03 00:35:21;;;;;;;4.50;0.50;;;11.50;99.90;;;;;;5036006;28;20868;-87
2022/10/03 00:38:00;;;;;;;3.57;0.47;;;11.60;99.90;;;;;;5018415;28;20526;-85
2022/10/03 00:40:41;;;;;;;3.77;0.30;;;11.60;99.90;;;;;;5018349;28;21161;-85
2022/10/03 00:43:40;;;;;;;6.87;2.47;;;11.60;99.90;;;;;;5036108;28;20500;-85
2022/10/03 00:46:26;;;;;;;5.30;0.30;;;11.50;99.90;;;;;;5036019;28;20412;-87
2022/10/03 00:49:28;;;;;;;7.57;0.47;;;11.60;99.90;;;;;;5017801;28;20892;-84
2022/10/03 00:52:03;;;;;;;2.63;0.40;;;11.60;99.90;;;;;;5035764;28;20443;-85
2022/10/03 00:54:51;;;;;;;4.73;0.30;;;11.60;99.90;;;;;;5018177;28;20501;-88
2022/10/03 00:57:42;;;;;;;2.97;0.50;;;11.50;99.90;;;;;;5035995;28;20930;-88
2022/10/03 01:00:23;;;;;;;5.57;0.30;;;11.60;99.90;;;;;;5035763;28;20519;-85
2022/10/03 01:03:21;;;;;;;6.50;0.43;;;11.60;99.90;;;;;;5036032;28;20545;-87
2022/10/03 01:06:04;;;;;;;3.73;0.40;;;11.60;99.90;;;;;;5035446;28;20455;-88
2022/10/03 01:08:38;;;;;;;2.30;0.50;;;11.70;99.90;;;;;;5017782;28;21006;-85
2022/10/03 01:11:27;;;;;;;2.30;0.97;;;11.70;99.90;;;;;;5035889;28;20452;-88
2022/10/03 01:13:58;;;;;;;4.87;0.40;;;11.60;99.90;;;;;;5035273;28;20452;-88
2022/10/03 01:17:04;;;;;;;5.20;0.53;;;11.60;99.90;;;;;;5035457;28;20413;-85
2022/10/03 01:20:04;;;;;;;5.23;0.63;;;11.60;99.90;;;;;;5011651;28;20420;-84
2022/10/03 01:23:01;;;;;;;7.47;0.87;;;11.60;99.90;;;;;;5035320;28;20555;-88
2022/10/03 01:25:48;;;;;;;2.00;0.40;;;11.70;99.90;;;;;;5035361;28;20423;-88
2022/10/03 01:31:44;;;;;;;5.23;0.53;;;11.70;99.90;;;;;;5035198;28;20399;-88
2022/10/03 01:34:29;;;;;;;5.03;0.27;;;11.70;99.90;;;;;;4997210;28;20437;-85
2022/10/03 01:37:24;;;;;;;3.33;0.30;;;11.70;99.90;;;;;;5015187;28;20436;-85
2022/10/03 01:40:10;;;;;;;7.13;0.87;;;11.70;99.90;;;;;;4986502;28;21048;-85
2022/10/03 01:43:00;;;;;;;3.17;0.30;;;11.70;99.90;;;;;;4997759;28;20453;-89
2022/10/03 01:45:51;;;;;;;2.87;0.50;;;11.70;99.90;;;;;;5015165;28;20421;-88
2022/10/03 01:48:31;;;;;;;4.07;0.43;;;11.70;99.90;;;;;;5015086;28;20453;-89
2022/10/03 01:51:10;;;;;;;7.90;0.50;;;11.70;99.90;;;;;;5014617;28;20468;-87
2022/10/03 01:54:02;;;;;;;2.93;1.00;;;11.70;99.90;;;;;;5015098;28;20401;-85
2022/10/03 01:56:46;;;;;;;5.67;0.83;;;11.70;99.90;;;;;;4977263;28;20502;-89
2022/10/03 01:59:41;;;;;;;3.87;0.50;;;11.60;99.90;;;;;;5014951;28;20510;-88
2022/10/03 02:02:09;;;;;;;3.13;0.30;;;11.60;99.90;;;;;;4977056;28;20428;-86
2022/10/03 02:05:08;;;;;;;2.33;0.60;;;11.50;99.90;;;;;;5014238;28;20440;-85
2022/10/03 02:08:21;;;;;;;3.63;0.63;;;11.30;99.90;;;;;;4995045;28;20434;-85
2022/10/03 02:11:00;;;;;;;5.87;0.70;;;11.20;99.90;;;;;;4919016;28;20442;-86
2022/10/03 02:13:35;;;;;;;2.23;0.67;;;11.10;99.90;;;;;;4993613;28;20415;-86
2022/10/03 02:16:22;;;;;;;5.67;0.60;;;11.10;99.90;;;;;;4994826;28;20878;-85
2022/10/03 02:19:19;;;;;;;5.37;0.60;;;11.10;99.90;;;;;;4994447;28;20969;-87
2022/10/03 02:21:48;;;;;;;8.13;1.97;;;11.00;99.90;;;;;;4977395;28;20509;-85
2022/10/03 02:24:13;;;;;;;9.00;0.80;;;11.00;99.90;;;;;;4977190;28;21282;-86
2022/10/03 02:27:00;;;;;;;4.73;0.50;;;11.00;99.90;;;;;;4994046;28;20422;-86
2022/10/03 02:29:50;;;;;;;2.20;0.47;;;11.00;99.90;;;;;;4977061;28;20333;-86
2022/10/03 02:32:34;;;;;;;5.10;0.60;;;10.90;99.90;;;;;;4994406;28;20475;-87
2022/10/03 02:35:38;;;;;;;9.10;0.67;;;10.90;99.90;;;;;;4994110;28;20764;-88
2022/10/03 02:38:22;;;;;;;3.27;0.40;;;10.90;99.90;;;;;;4977065;28;20962;-87
2022/10/03 02:41:17;;;;;;;3.60;0.30;;;10.70;99.90;;;;;;4993535;28;20425;-87
2022/10/03 02:44:29;;;;;;;2.57;0.20;;;10.70;99.90;;;;;;4995115;28;20413;-88
2022/10/03 02:47:32;;;;;;;3.90;0.20;;;10.60;99.90;;;;;;4974862;28;20429;-86
2022/10/03 02:50:25;;;;;;;4.50;0.23;;;10.50;99.90;;;;;;5013587;28;20476;-87
2022/10/03 02:53:14;;;;;;;5.03;0.67;;;10.40;99.90;;;;;;5013479;28;20461;-86
2022/10/03 02:55:58;;;;;;;5.37;0.60;;;10.40;99.90;;;;;;5013146;28;20421;-89
2022/10/03 02:58:55;;;;;;;3.37;0.53;;;10.30;99.90;;;;;;5013610;28;20423;-85
2022/10/03 03:01:51;;;;;;;3.13;0.50;;;10.20;99.90;;;;;;4996375;28;20430;-87
2022/10/03 03:04:55;;;;;;;2.10;0.70;;;10.30;99.90;;;;;;4995968;28;20853;-88
2022/10/03 03:07:54;;;;;;;4.27;0.20;;;10.10;99.90;;;;;;4996150;28;20420;-86
2022/10/03 03:11:04;;;;;;;10.43;0.70;;;10.10;99.90;;;;;;5013606;28;20434;-88
2022/10/03 03:14:05;;;;;;;4.27;0.47;;;10.20;99.90;;;;;;5013933;28;20431;-87
2022/10/03 03:16:51;;;;;;;2.50;0.20;;;10.20;99.90;;;;;;4996189;28;20433;-86
2022/10/03 03:19:48;;;;;;;6.33;0.70;;;10.20;99.90;;;;;;5013401;28;20506;-86
2022/10/03 03:22:50;;;;;;;2.17;0.30;;;10.30;99.90;;;;;;5012581;28;20476;-86
2022/10/03 03:25:26;;;;;;;5.73;0.67;;;10.10;99.90;;;;;;4996150;28;20422;-87
2022/10/03 03:28:20;;;;;;;4.40;0.40;;;10.00;99.90;;;;;;4996098;28;20435;-88
2022/10/03 03:31:12;;;;;;;8.80;0.50;;;9.90;99.90;;;;;;5013809;28;20424;-86
2022/10/03 03:34:07;;;;;;;3.40;0.80;;;9.90;99.90;;;;;;5029047;28;20464;-88
2022/10/03 03:36:43;;;;;;;1.60;0.30;;;9.80;99.90;;;;;;5015593;28;20414;-87
2022/10/03 03:39:26;;;;;;;1.50;0.30;;;9.80;99.90;;;;;;5015497;28;20450;-88
2022/10/03 03:42:11;;;;;;;1.57;0.30;;;9.80;99.90;;;;;;5033193;28;20409;-86
2022/10/03 03:44:59;;;;;;;5.63;0.40;;;9.80;99.90;;;;;;5033159;28;20779;-88
2022/10/03 03:47:42;;;;;;;6.43;1.40;;;9.90;99.90;;;;;;5033280;28;20795;-85
2022/10/03 03:50:34;;;;;;;4.10;0.93;;;9.90;99.90;;;;;;5015144;28;20830;-85
2022/10/03 03:53:18;;;;;;;2.00;0.20;;;9.90;99.90;;;;;;5033395;28;20880;-89
2022/10/03 03:56:22;;;;;;;5.60;1.03;;;9.80;99.90;;;;;;5033135;28;20756;-84
2022/10/03 03:59:05;;;;;;;4.63;0.50;;;9.80;99.90;;;;;;5033320;28;20418;-88
2022/10/03 04:01:47;;;;;;;5.53;0.30;;;9.70;99.90;;;;;;5033209;28;20417;-88
2022/10/03 04:04:31;;;;;;;7.00;0.30;;;9.70;99.90;;;;;;5031668;28;20439;-88
2022/10/03 04:07:15;;;;;;;5.50;0.40;;;9.70;99.90;;;;;;5015616;28;20903;-89
2022/10/03 04:10:05;;;;;;;3.70;0.20;;;9.70;99.90;;;;;;5033606;28;20505;-88
2022/10/03 04:13:08;;;;;;;0.80;0.27;;;9.70;99.90;;;;;;5033012;28;20422;-88
2022/10/03 04:15:58;;;;;;;4.73;0.30;;;9.70;99.90;;;;;;5032993;28;20519;-89
2022/10/03 04:18:59;;;;;;;5.83;0.20;;;9.60;99.90;;;;;;5015265;28;20417;-88
2022/10/03 04:21:54;;;;;;;1.50;0.20;;;9.60;99.90;;;;;;5015318;28;20421;-89
2022/10/03 04:24:53;;;;;;;3.47;0.50;;;9.70;99.90;;;;;;5033223;28;20426;-88
2022/10/03 04:27:41;;;;;;;2.70;0.63;;;9.70;99.90;;;;;;5033143;28;20409;-86
2022/10/03 04:30:18;;;;;;;4.57;0.40;;;9.80;99.90;;;;;;5033122;28;20475;-90
2022/10/03 04:33:09;;;;;;;3.23;0.50;;;9.70;99.90;;;;;;5032791;28;20464;-88
2022/10/03 04:35:53;;;;;;;5.10;0.20;;;9.60;99.90;;;;;;5015179;28;20870;-87
2022/10/03 04:38:45;;;;;;;0.80;0.30;;;9.60;99.90;;;;;;5014929;28;20433;-86
2022/10/03 04:41:35;;;;;;;6.17;0.77;;;9.60;99.90;;;;;;5032507;28;20414;-87
2022/10/03 04:44:18;;;;;;;5.63;0.30;;;9.70;99.90;;;;;;5032600;28;20408;-85
2022/10/03 04:47:02;;;;;;;1.87;0.20;;;9.70;99.90;;;;;;5032830;28;20475;-87
2022/10/03 04:49:52;;;;;;;3.43;0.77;;;9.70;99.90;;;;;;5034060;28;20473;-86
2022/10/03 04:52:43;;;;;;;4.97;0.40;;;9.60;99.90;;;;;;5036297;28;20798;-87
2022/10/03 04:55:35;;;;;;;3.30;0.27;;;9.60;99.90;;;;;;5035930;28;20419;-87
2022/10/03 04:58:22;;;;;;;2.00;0.20;;;9.60;99.90;;;;;;5035962;28;20451;-87
2022/10/03 05:01:17;;;;;;;4.77;0.40;;;9.60;99.90;;;;;;5036102;28;20791;-87
2022/10/03 05:03:48;;;;;;;4.20;0.20;;;9.70;99.90;;;;;;5035621;28;20421;-87
2022/10/03 05:06:23;;;;;;;3.50;0.47;;;9.70;99.90;;;;;;5035773;28;20422;-86
2022/10/03 05:09:20;;;;;;;6.63;0.77;;;9.80;99.90;;;;;;5017837;28;20613;-86
2022/10/03 05:12:09;;;;;;;1.90;0.40;;;9.80;99.90;;;;;;5035766;28;20501;-87
2022/10/03 05:15:07;;;;;;;3.63;0.50;;;9.70;99.90;;;;;;5035822;28;20777;-85
2022/10/03 05:17:44;;;;;;;7.00;0.43;;;9.60;99.90;;;;;;5035433;28;20428;-85
2022/10/03 05:20:22;;;;;;;6.23;0.60;;;9.50;99.90;;;;;;5034093;28;20410;-85
2022/10/03 05:23:40;;;;;;;2.43;0.30;;;9.50;99.90;;;;;;5035562;28;20943;-85
2022/10/03 05:26:18;;;;;;;2.10;0.53;;;9.40;99.90;;;;;;5034399;28;20518;-86
2022/10/03 05:28:53;;;;;;;2.30;0.30;;;9.40;99.90;;;;;;5035190;28;20459;-85
2022/10/03 05:31:45;;;;;;;5.83;0.43;;;9.40;99.90;;;;;;5035590;28;20990;-84
2022/10/03 05:34:30;;;;;;;2.67;0.30;;;9.40;99.90;;;;;;5035006;28;20517;-84
2022/10/03 05:37:04;;;;;;;4.07;0.40;;;9.40;99.90;;;;;;5035169;28;20439;-85
2022/10/03 05:40:03;;;;;;;3.73;0.40;;;9.50;99.90;;;;;;5035316;28;20502;-85
2022/10/03 05:43:23;;;;;;;4.77;0.20;;;9.50;99.90;;;;;;5017390;28;20422;-86
2022/10/03 05:46:29;;;;;;;6.87;0.77;;;9.40;99.90;;;;;;4992024;28;20480;-85
2022/10/03 05:49:18;;;;;;;3.40;0.30;;;9.50;99.90;;;;;;5034808;28;20520;-85
2022/10/03 05:52:14;;;;;;;2.23;0.20;;;9.50;99.90;;;;;;5017135;28;21061;-84
2022/10/03 05:55:08;;;;;;;2.00;0.30;;;9.50;99.90;;;;;;5034949;28;20940;-85
2022/10/03 05:58:05;;;;;;;3.70;0.50;;;9.50;99.90;;;;;;5016973;28;20422;-83
2022/10/03 06:00:57;;;;;;;1.63;0.20;;;9.50;99.90;;;;;;5033750;28;20407;-85
2022/10/03 06:04:00;;;;;;;8.27;0.97;;;9.70;99.90;;;;;;5034533;28;20404;-85
2022/10/03 06:06:33;;;;;;;6.30;0.50;;;9.80;99.90;;;;;;5035057;28;20436;-88
2022/10/03 06:09:35;;;;;;;4.67;0.50;;;9.90;99.90;;;;;;5017295;28;20996;-87
2022/10/03 06:12:02;;;;;;;6.00;1.63;;;10.10;99.90;;;;;;5001780;28;20793;-88
2022/10/03 06:14:34;;;;;;;5.03;0.50;;;10.40;99.90;;;;;;5034953;28;20429;-87
2022/10/03 06:17:23;;;;;;;8.37;0.73;;;10.50;99.90;;;;;;5017009;28;20432;-86
2022/10/03 06:20:17;;;;;;;11.00;0.40;;;10.50;99.90;;;;;;5034320;28;20410;-87
2022/10/03 06:23:15;;;;;;;2.83;0.60;;;10.60;99.90;;;;;;5034560;28;20460;-86
2022/10/03 06:25:54;;;;;;;6.50;0.80;;;10.50;99.90;;;;;;5034573;28;20775;-87
2022/10/03 06:28:46;;;;;;;13.83;1.10;;;10.70;99.90;;;;;;5016699;28;20449;-87
2022/10/03 06:31:22;;;;;;;2.37;0.27;;;10.70;99.90;;;;;;5034322;28;20428;-86
2022/10/03 06:34:30;;;;;;;4.80;0.63;;;10.70;99.90;;;;;;4999139;28;20879;-87
2022/10/03 06:37:48;;;;;;;10.73;1.40;;;10.80;99.90;;;;;;4986621;28;20427;-86
2022/10/03 06:40:31;;;;;;;1.60;0.20;;;11.00;99.90;;;;;;4994711;28;20476;-86
2022/10/03 06:43:23;;;;;;;9.43;0.53;;;11.10;99.90;;;;;;5014379;28;20505;-85
2022/10/03 06:45:58;;;;;;;6.23;0.63;;;11.60;99.90;;;;;;4990929;28;20444;-85
2022/10/03 06:49:00;;;;;;;9.57;0.97;;;11.50;99.90;;;;;;4998316;28;20497;-86
2022/10/03 06:51:53;;;;;;;8.53;0.37;;;11.40;99.90;;;;;;5014297;28;20911;-85
2022/10/03 06:54:40;;;;;;;9.70;1.53;;;11.40;99.90;;;;;;4996887;28;20808;-86
2022/10/03 06:57:43;;;;;;;6.33;0.53;;;11.40;99.90;;;;;;5014841;28;20816;-84
2022/10/03 07:00:37;;;;;;;8.63;0.80;;;11.50;99.90;;;;;;5015861;28;20416;-85
2022/10/03 07:03:18;;;;;;;9.27;1.50;;;11.50;99.90;;;;;;5014075;28;20569;-86
2022/10/03 07:06:25;;;;;;;5.83;0.60;;;11.60;99.90;;;;;;4996292;28;20510;-86
2022/10/03 07:09:00;;;;;;;4.83;0.70;;;11.70;99.90;;;;;;5017918;28;20473;-87
2022/10/03 07:11:37;;;;;;;10.17;1.57;;;11.70;99.90;;;;;;5012032;28;20427;-87
2022/10/03 07:14:15;;;;;;;7.80;1.13;;;11.70;99.90;;;;;;5012347;28;20498;-87
2022/10/03 07:17:03;;;;;;;2.40;0.77;;;11.80;99.90;;;;;;5013448;28;20447;-87
2022/10/03 07:19:55;;;;;;;12.00;1.00;;;11.80;99.90;;;;;;4993391;28;20493;-86
2022/10/03 07:22:46;;;;;;;4.13;1.27;;;11.90;99.90;;;;;;4983236;28;20469;-86
2022/10/03 07:25:30;;;;;;;5.73;0.50;;;11.90;99.90;;;;;;4993560;28;20406;-86
2022/10/03 07:28:33;;;;;;;11.97;3.03;;;12.30;99.90;;;;;;4993749;28;20469;-86
2022/10/03 07:31:20;;;;;;;7.30;0.63;;;12.80;99.90;;;;;;4993327;28;20468;-87
2022/10/03 07:34:14;;;;;;;4.53;0.40;;;12.70;99.90;;;;;;4993003;28;21018;-86
2022/10/03 07:40:26;;;;;;;7.57;0.80;;;13.10;99.90;;;;;;4988594;28;20451;-86
2022/10/03 07:43:24;;;;;;;3.27;0.50;;;13.90;99.90;;;;;;4991931;28;20424;-87
2022/10/03 07:46:27;;;;;;;5.03;0.70;;;13.60;99.90;;;;;;5011663;28;20418;-87
2022/10/03 07:49:17;;;;;;;3.10;0.60;;;13.40;99.90;;;;;;4994914;28;20502;-87
2022/10/03 07:52:22;;;;;;;3.47;0.83;;;14.90;99.90;;;;;;5015484;28;20819;-85
2022/10/03 07:55:25;;;;;;;5.80;0.40;;;14.50;99.90;;;;;;4999424;28;20472;-86
2022/10/03 07:58:25;;;;;;;4.10;0.53;;;16.00;44.50;;;;;;4995120;28;20417;-87
2022/10/03 08:01:05;;;;;;;4.57;0.60;;;14.80;99.90;;;;;;5011917;28;20443;-86
2022/10/03 08:03:52;;;;;;;5.27;0.73;;;17.10;25.40;;;;;;5012516;28;20420;-85
2022/10/03 08:06:36;;;;;;;2.83;0.30;;;17.80;28.10;;;;;;4995554;28;20429;-85
2022/10/03 08:09:22;;;;;;;3.00;0.33;;;16.20;1.00;;;;;;5013475;28;20953;-87
2022/10/03 08:12:18;;;;;;;5.50;0.53;;;16.40;1.00;;;;;;5015507;28;20429;-87
2022/10/03 08:15:05;;;;;;;5.03;0.40;;;18.60;99.90;;;;;;5014405;28;20773;-86
2022/10/03 08:18:13;;;;;;;2.20;0.47;;;19.90;1.00;;;;;;5026933;28;20398;-87
2022/10/03 08:20:53;;;;;;;5.03;0.67;;;20.50;1.00;;;;;;5005413;28;20934;-88
2022/10/03 08:23:32;;;;;;;3.17;0.37;;;21.00;99.90;;;;;;5011294;28;20515;-89
2022/10/03 08:26:03;;;;;;;3.37;0.33;;;20.90;99.90;;;;;;5014030;28;20421;-86
2022/10/03 08:28:51;;;;;;;2.30;0.20;;;21.90;99.90;;;;;;5010597;28;20458;-89
2022/10/03 08:31:46;;;;;;;1.70;0.20;;;22.50;99.90;;;;;;5021908;28;20432;-86
2022/10/03 08:34:42;;;;;;;4.80;0.47;;;21.70;99.90;;;;;;5041384;28;20425;-88
2022/10/03 08:37:27;;;;;;;4.00;0.43;;;22.70;99.90;;;;;;5039430;28;20420;-89
2022/10/03 08:40:26;;;;;;;3.03;0.30;;;23.10;99.90;;;;;;5039304;28;20947;-92
2022/10/03 08:43:13;;;;;;;2.37;0.30;;;22.70;99.90;;;;;;5039938;28;20448;-92
2022/10/03 08:46:11;;;;;;;2.30;0.50;;;23.10;99.90;;;;;;5040109;28;20436;-89
2022/10/03 08:48:59;;;;;;;4.43;0.73;;;23.10;99.90;;;;;;4988755;28;20460;-83
2022/10/03 08:51:47;;;;;;;1.60;0.20;;;23.30;99.90;;;;;;5041238;28;20415;-91
2022/10/03 08:54:50;;;;;;;6.87;0.83;;;19.50;87.50;;;;;;5039327;28;20405;-89
2022/10/03 08:57:34;;;;;;;3.73;0.33;;;18.10;1.00;;;;;;5045375;28;20448;-91
2022/10/03 09:00:22;;;;;;;3.13;0.40;;;19.60;1.00;;;;;;5044331;28;20393;-82
2022/10/03 09:03:05;;;;;;;2.70;0.40;;;21.50;99.90;;;;;;5040428;28;20417;-90
2022/10/03 09:05:54;;;;;;;3.20;0.40;;;22.00;99.90;;;;;;5049381;28;20475;-89
2022/10/03 09:08:34;;;;;;;5.20;1.03;;;19.50;1.00;;;;;;5056085;28;20804;-87
2022/10/03 09:11:28;;;;;;;3.43;0.60;;;18.40;1.00;;;;;;5056244;28;20412;-86
2022/10/03 09:14:16;;;;;;;6.27;0.50;;;18.10;1.00;;;;;;5055938;28;20931;-86
2022/10/03 09:16:57;;;;;;;4.00;0.70;;;17.40;1.00;;;;;;5056195;28;20443;-87
2022/10/03 09:19:51;;;;;;;2.10;0.33;;;17.80;1.00;;;;;;5055660;28;20412;-84
2022/10/03 09:22:54;;;;;;;1.17;0.40;;;17.40;1.00;;;;;;5055846;28;20411;-86
2022/10/03 09:25:43;;;;;;;5.23;0.60;;;17.00;36.70;;;;;;5055788;28;20421;-87
2022/10/03 09:28:34;;;;;;;1.83;0.20;;;17.50;1.00;;;;;;5055605;28;20414;-84
2022/10/03 09:31:37;;;;;;;2.50;0.23;;;18.60;99.90;;;;;;5055810;28;20783;-88
2022/10/03 09:34:06;;;;;;;5.17;0.67;;;18.20;99.90;;;;;;5055122;28;20494;-88
2022/10/03 09:36:49;;;;;;;2.00;0.23;;;17.70;1.00;;;;;;5037437;28;20809;-86
2022/10/03 09:39:39;;;;;;;3.10;0.47;;;17.60;1.00;;;;;;5055232;28;20415;-88
2022/10/03 09:42:42;;;;;;;6.60;1.20;;;18.90;1.00;;;;;;5037472;28;20422;-87
2022/10/03 09:45:35;;;;;;;4.87;0.47;;;18.40;19.40;;;;;;5037461;28;20429;-89
2022/10/03 09:48:07;;;;;;;5.20;1.07;;;20.30;99.90;;;;;;5054833;28;20469;-87
2022/10/03 09:50:52;;;;;;;3.93;0.20;;;22.10;1.00;;;;;;5055009;28;20460;-86
2022/10/03 09:53:31;;;;;;;3.33;0.63;;;21.10;1.00;;;;;;5055005;28;20801;-89
2022/10/03 09:56:27;;;;;;;2.70;0.60;;;20.60;12.90;;;;;;5054821;28;20427;-86
2022/10/03 09:59:21;;;;;;;6.33;0.67;;;21.70;1.00;;;;;;5016129;28;20906;-84
2022/10/03 10:02:09;;;;;;;6.30;0.77;;;22.20;99.90;;;;;;5020219;28;20430;-86
2022/10/03 10:04:52;;;;;;;3.70;0.57;;;20.50;1.00;;;;;;5040202;28;20418;-83
2022/10/03 10:07:57;;;;;;;3.90;1.60;;;21.00;1.00;;;;;;5050961;28;20406;-84
2022/10/03 10:10:44;;;;;;;3.57;0.67;;;20.50;1.00;;;;;;5039355;28;20568;-82
2022/10/03 10:13:42;;;;;;;5.70;0.73;;;20.20;99.90;;;;;;5042075;28;20415;-84
2022/10/03 10:16:46;;;;;;;2.47;0.30;;;20.40;99.90;;;;;;4990015;28;20425;-84
2022/10/03 10:19:50;;;;;;;2.33;0.30;;;21.80;65.70;;;;;;5009395;28;20472;-87
2022/10/03 10:22:54;;;;;;;4.67;0.50;;;22.20;1.00;;;;;;5025671;28;20791;-86
2022/10/03 10:25:35;;;;;;;15.37;7.97;;;21.00;1.00;;;;;;4996653;28;20421;-88
2022/10/03 10:28:52;;;;;;;3.80;0.90;;;20.10;99.90;;;;;;5024417;28;21044;-88
2022/10/03 10:32:05;;;;;;;3.93;0.30;;;19.50;1.00;;;;;;4958980;28;20523;-92
2022/10/03 10:35:06;;;;;;;4.17;0.63;;;18.20;99.90;;;;;;5005359;28;20449;-87
2022/10/03 10:37:55;;;;;;;4.30;1.27;;;19.20;1.00;;;;;;5026714;28;20433;-88
2022/10/03 10:40:57;;;;;;;5.00;0.40;;;20.30;99.90;;;;;;5004588;28;20448;-87
2022/10/03 10:43:49;;;;;;;3.03;0.20;;;19.80;99.90;;;;;;5015528;28;20457;-88
2022/10/03 10:46:39;;;;;;;3.80;0.50;;;18.60;99.90;;;;;;5025014;28;20409;-87
2022/10/03 10:49:24;;;;;;;6.27;0.57;;;17.50;19.00;;;;;;5025611;28;20467;-89
2022/10/03 10:52:29;;;;;;;2.20;0.40;;;17.00;99.90;;;;;;5024045;28;20412;-88
2022/10/03 10:55:34;;;;;;;7.00;0.67;;;16.60;99.90;;;;;;5009079;28;20425;-88
2022/10/03 10:58:41;;;;;;;2.23;0.20;;;16.50;99.90;;;;;;5023085;28;20429;-87
2022/10/03 11:01:48;;;;;;;6.80;0.60;;;19.70;99.90;;;;;;5004917;28;20955;-89
2022/10/03 11:04:51;;;;;;;3.17;0.50;;;21.30;61.00;;;;;;5033533;28;20487;-88
2022/10/03 11:07:51;;;;;;;2.30;0.40;;;22.30;1.00;;;;;;5035009;28;20448;-86
2022/10/03 11:10:56;;;;;;;1.40;0.20;;;22.50;99.90;;;;;;5016647;28;20504;-90
2022/10/03 11:13:46;;;;;;;2.97;0.40;;;23.70;99.90;;;;;;5016774;28;20796;-89
2022/10/03 11:16:14;;;;;;;4.17;0.70;;;21.10;1.00;;;;;;5031698;28;20417;-87
2022/10/03 11:18:55;;;;;;;1.67;0.20;;;19.30;6.30;;;;;;5033068;28;20417;-90
2022/10/03 11:21:44;;;;;;;3.17;0.57;;;18.50;1.00;;;;;;5033602;28;20401;-87
2022/10/03 11:24:42;;;;;;;3.00;0.70;;;18.50;99.90;;;;;;5033024;28;20419;-88
2022/10/03 11:27:48;;;;;;;2.60;0.40;;;18.50;30.00;;;;;;5032899;28;20842;-83
2022/10/03 11:30:41;;;;;;;3.50;0.60;;;18.30;1.00;;;;;;5032860;28;20974;-87
2022/10/03 11:33:54;;;;;;;3.53;0.50;;;17.70;1.00;;;;;;5021100;28;20494;-89
2022/10/03 11:36:47;;;;;;;4.33;1.17;;;17.60;1.00;;;;;;4942994;28;20462;-82
2022/10/03 11:39:37;;;;;;;4.80;0.20;;;17.30;1.00;;;;;;5013472;28;20410;-84
2022/10/03 11:42:39;;;;;;;1.83;0.27;;;17.30;1.00;;;;;;5012897;28;20406;-87
2022/10/03 11:45:19;;;;;;;1.63;0.30;;;17.50;1.00;;;;;;5013603;28;20406;-83
2022/10/03 11:47:56;;;;;;;1.17;0.20;;;17.80;1.00;;;;;;5012075;28;20423;-83
2022/10/03 11:50:50;;;;;;;2.80;0.30;;;17.80;1.00;;;;;;5012894;28;20466;-87
2022/10/03 11:53:45;;;;;;;2.37;0.40;;;17.90;1.00;;;;;;5012864;28;20749;-86
2022/10/03 11:56:37;;;;;;;5.47;0.20;;;17.90;1.00;;;;;;5013421;28;20468;-85
2022/10/03 11:59:23;;;;;;;2.50;0.40;;;17.60;1.00;;;;;;5012429;28;20855;-87
2022/10/03 12:01:59;;;;;;;4.43;0.20;;;17.40;1.00;;;;;;4995738;28;20425;-86
2022/10/03 12:04:51;;;;;;;2.07;0.30;;;17.60;1.00;;;;;;5013040;28;20472;-84
2022/10/03 12:11:05;;;;;;;1.90;0.40;;;17.30;1.00;;;;;;5012999;28;20480;-83
2022/10/03 12:14:00;;;;;;;1.27;0.20;;;17.60;6.80;;;;;;4959828;28;20430;-83
2022/10/03 12:16:30;;;;;;;2.80;0.30;;;17.90;1.00;;;;;;5013205;28;20407;-87
2022/10/03 12:19:12;;;;;;;6.83;0.73;;;18.30;1.00;;;;;;5013273;28;20416;-83
2022/10/03 12:22:12;;;;;;;3.13;0.40;;;19.70;99.90;;;;;;5013266;28;20422;-83
2022/10/03 12:24:42;;;;;;;1.90;0.60;;;20.70;99.90;;;;;;5011483;28;20459;-85
2022/10/03 12:27:40;;;;;;;4.70;0.50;;;19.60;99.90;;;;;;4995412;28;20919;-85
2022/10/03 12:30:15;;;;;;;1.23;0.50;;;19.30;99.90;;;;;;5013122;28;20508;-87
2022/10/03 12:32:50;;;;;;;2.17;0.20;;;19.30;1.00;;;;;;5012728;28;20455;-83
2022/10/03 12:35:37;;;;;;;5.13;0.50;;;18.80;99.90;;;;;;4996823;28;20432;-83
2022/10/03 12:38:09;;;;;;;2.90;0.30;;;18.20;1.00;;;;;;5014835;28;20440;-86
2022/10/03 12:40:46;;;;;;;3.40;0.73;;;18.20;1.00;;;;;;5025474;28;20431;-87
2022/10/03 12:44:03;;;;;;;2.53;0.50;;;17.80;1.00;;;;;;5013581;28;20416;-88
2022/10/03 12:46:44;;;;;;;4.10;0.70;;;17.70;1.00;;;;;;5013009;28;20420;-82
2022/10/03 12:49:51;;;;;;;4.87;0.97;;;17.80;17.50;;;;;;5012005;28;20466;-82
2022/10/03 12:52:25;;;;;;;2.90;0.27;;;18.00;1.00;;;;;;5010746;28;20928;-81
2022/10/03 12:55:06;;;;;;;1.67;0.37;;;18.10;1.00;;;;;;5011256;28;20426;-81
2022/10/03 12:57:48;;;;;;;4.23;0.50;;;18.50;1.00;;;;;;5011120;28;20413;-81
2022/10/03 13:00:55;;;;;;;3.43;0.70;;;18.80;1.00;;;;;;5011165;28;20455;-81
2022/10/03 13:03:37;;;;;;;3.43;1.60;;;18.40;1.00;;;;;;4963469;28;20420;-80
2022/10/03 13:06:32;;;;;;;3.53;0.43;;;18.40;1.00;;;;;;5011229;28;20786;-81
2022/10/03 13:09:08;;;;;;;4.47;0.23;;;18.30;1.00;;;;;;5011159;28;20476;-80
2022/10/03 13:12:15;;;;;;;1.83;0.53;;;18.20;1.00;;;;;;5014432;28;20419;-81
2022/10/03 13:15:18;;;;;;;3.00;0.20;;;18.30;77.90;;;;;;5002528;28;20428;-81
2022/10/03 13:17:54;;;;;;;2.73;0.20;;;18.10;1.00;;;;;;5013974;28;20487;-80
2022/10/03 13:20:28;;;;;;;3.77;0.47;;;17.90;1.00;;;;;;5014400;28;20898;-80
2022/10/03 13:23:22;;;;;;;1.97;1.07;;;17.80;18.40;;;;;;4996692;28;21019;-81
2022/10/03 13:26:10;;;;;;;3.33;0.30;;;17.50;3.50;;;;;;5014218;28;20422;-80
2022/10/03 13:28:50;;;;;;;1.87;0.50;;;17.30;27.60;;;;;;5014177;28;20465;-81
2022/10/03 13:31:28;;;;;;;1.60;0.30;;;17.10;99.90;;;;;;4996778;28;20504;-81
2022/10/03 13:33:59;;;;;;;2.93;0.33;;;17.00;99.90;;;;;;5013860;28;20456;-82
2022/10/03 13:36:31;;;;;;;3.27;0.40;;;16.90;99.90;;;;;;5014981;28;20432;-81
2022/10/03 13:39:28;;;;;;;1.80;0.27;;;16.90;99.90;;;;;;5014867;28;20409;-81
2022/10/03 13:42:19;;;;;;;3.07;0.33;;;16.80;99.90;;;;;;4981310;28;20426;-81
2022/10/03 13:44:55;;;;;;;5.70;0.37;;;16.70;99.90;;;;;;4997677;28;20502;-82
2022/10/03 13:47:39;;;;;;;2.30;0.30;;;16.80;99.90;;;;;;4997191;28;20928;-83
2022/10/03 13:50:19;;;;;;;3.27;0.50;;;17.00;29.50;;;;;;5015070;28;20875;-82
2022/10/03 13:53:19;;;;;;;3.40;0.30;;;16.90;83.70;;;;;;5015081;28;20967;-82
2022/10/03 13:55:54;;;;;;;2.63;0.30;;;16.90;99.90;;;;;;5014805;28;20474;-82
2022/10/03 13:58:37;;;;;;;4.43;0.90;;;16.80;84.00;;;;;;4996743;28;20779;-85
2022/10/03 14:01:28;;;;;;;0.90;0.30;;;16.80;99.90;;;;;;5014806;28;20554;-83
2022/10/03 14:04:23;;;;;;;3.50;0.83;;;16.80;98.70;;;;;;5014483;28;20426;-82
2022/10/03 14:07:08;;;;;;;2.20;0.30;;;16.80;99.90;;;;;;5014923;28;20415;-81
2022/10/03 14:09:37;;;;;;;4.33;0.90;;;16.80;99.90;;;;;;5014845;28;20475;-83
2022/10/03 14:12:20;;;;;;;1.63;0.20;;;16.90;99.90;;;;;;5011642;28;20429;-81
2022/10/03 14:15:17;;;;;;;2.00;0.67;;;16.80;99.90;;;;;;5005355;28;20419;-82
2022/10/03 14:18:13;;;;;;;3.63;0.70;;;17.00;99.90;;;;;;5005850;28;20426;-81
2022/10/03 14:21:14;;;;;;;2.77;0.20;;;16.90;76.60;;;;;;5003866;28;20500;-84
2022/10/03 14:24:11;;;;;;;7.17;0.60;;;16.90;99.90;;;;;;5004764;28;20983;-82
2022/10/03 14:27:04;;;;;;;3.60;0.23;;;16.90;99.90;;;;;;5004599;28;20426;-82
2022/10/03 14:29:38;;;;;;;2.27;0.30;;;17.10;1.00;;;;;;5004540;28;20469;-81
2022/10/03 14:32:38;;;;;;;1.80;0.20;;;17.20;1.00;;;;;;5004735;28;20538;-81
2022/10/03 14:35:36;;;;;;;5.50;0.50;;;17.20;38.90;;;;;;5004386;28;20440;-84
2022/10/03 14:41:27;;;;;;;1.93;0.30;;;16.80;2.70;;;;;;5004314;28;20468;-80
2022/10/03 14:43:59;;;;;;;3.13;0.30;;;16.70;99.90;;;;;;5011506;28;20423;-82
2022/10/03 14:46:29;;;;;;;5.03;0.57;;;16.60;82.50;;;;;;5012629;28;20917;-82
2022/10/03 14:49:04;;;;;;;1.40;0.40;;;16.60;99.90;;;;;;5014163;28;20475;-81
2022/10/03 14:51:36;;;;;;;5.43;0.50;;;16.50;99.90;;;;;;5014296;28;20432;-82
2022/10/03 14:54:06;;;;;;;2.70;0.40;;;16.30;99.90;;;;;;4996890;28;20435;-81
2022/10/03 14:56:40;;;;;;;3.30;0.40;;;16.30;99.90;;;;;;5014289;28;20835;-83
2022/10/03 14:59:18;;;;;;;3.30;0.40;;;16.30;99.90;;;;;;5013713;28;20455;-82